sensor_id;sensor_type;location;lat;lon;timestamp;temperature;humidity
44069;DHT22;29738;51.234;5.484;2023-07-20T11:09:04;23.00;99.90
44069;DHT22;29738;51.234;5.484;2023-07-20T11:11:31;23.10;99.90
44069;DHT22;29738;51.234;5.484;2023-07-20T11:14:02;23.20;99.90
44069;DHT22;29738;51.234;5.484;2023-07-20T11:16:41;23.40;99.90
44069;DHT22;29738;51.234;5.484;2023-07-20T11:19:40;23.60;99.90
44069;DHT22;29738;51.234;5.484;2023-07-20T11:21:59;23.40;99.80
44069;DHT22;29738;51.234;5.484;2023-07-20T11:24:25;23.10;99.90
44069;DHT22;29738;51.234;5.484;2023-07-20T11:29:16;23.50;99.90
44069;DHT22;29738;51.234;5.484;2023-07-20T11:31:43;23.20;99.50
44069;DHT22;29738;51.234;5.484;2023-07-20T11:34:12;23.20;99.90
44069;DHT22;29738;51.234;5.484;2023-07-20T11:36:42;23.50;99.70
44069;DHT22;29738;51.234;5.484;2023-07-20T11:39:12;23.70;99.60
44069;DHT22;29738;51.234;5.484;2023-07-20T11:41:38;24.00;99.90
44069;DHT22;29738;51.234;5.484;2023-07-20T11:44:05;24.20;98.60
44069;DHT22;29738;51.234;5.484;2023-07-20T11:46:36;24.40;96.90
44069;DHT22;29738;51.234;5.484;2023-07-20T11:49:02;24.50;95.80
44069;DHT22;29738;51.234;5.484;2023-07-20T11:51:28;24.60;96.20
44069;DHT22;29738;51.234;5.484;2023-07-20T11:53:54;24.10;96.10
44069;DHT22;29738;51.234;5.484;2023-07-20T11:56:20;24.20;96.50
44069;DHT22;29738;51.234;5.484;2023-07-20T11:58:45;24.40;95.50
44069;DHT22;29738;51.234;5.484;2023-07-20T12:01:12;24.40;95.70
44069;DHT22;29738;51.234;5.484;2023-07-20T12:03:37;24.20;96.60
44069;DHT22;29738;51.234;5.484;2023-07-20T12:06:08;24.40;97.40
44069;DHT22;29738;51.234;5.484;2023-07-20T12:08:34;24.70;96.80
44069;DHT22;29738;51.234;5.484;2023-07-20T12:11:00;24.80;96.40
44069;DHT22;29738;51.234;5.484;2023-07-20T12:13:35;24.70;96.40
44069;DHT22;29738;51.234;5.484;2023-07-20T12:16:11;24.80;96.20
44069;DHT22;29738;51.234;5.484;2023-07-20T12:18:37;24.30;96.70
44069;DHT22;29738;51.234;5.484;2023-07-20T12:21:02;24.00;96.80
44069;DHT22;29738;51.234;5.484;2023-07-20T12:23:34;24.10;96.30
44069;DHT22;29738;51.234;5.484;2023-07-20T12:28:38;24.50;96.90
44069;DHT22;29738;51.234;5.484;2023-07-20T12:31:10;24.50;96.00
44069;DHT22;29738;51.234;5.484;2023-07-20T12:33:39;24.60;97.60
44069;DHT22;29738;51.234;5.484;2023-07-20T12:36:05;24.40;96.80
44069;DHT22;29738;51.234;5.484;2023-07-20T12:38:30;24.50;96.90
44069;DHT22;29738;51.234;5.484;2023-07-20T12:40:57;24.70;96.40
44069;DHT22;29738;51.234;5.484;2023-07-20T12:43:23;24.80;96.70
44069;DHT22;29738;51.234;5.484;2023-07-20T12:45:50;24.70;97.10
44069;DHT22;29738;51.234;5.484;2023-07-20T12:48:16;24.90;96.50
44069;DHT22;29738;51.234;5.484;2023-07-20T12:50:42;24.90;96.80
44069;DHT22;29738;51.234;5.484;2023-07-20T12:53:07;25.40;96.10
44069;DHT22;29738;51.234;5.484;2023-07-20T12:55:33;25.40;95.50
44069;DHT22;29738;51.234;5.484;2023-07-20T12:57:59;25.30;95.90
44069;DHT22;29738;51.234;5.484;2023-07-20T13:00:25;24.80;96.00
44069;DHT22;29738;51.234;5.484;2023-07-20T13:02:51;24.70;96.70
44069;DHT22;29738;51.234;5.484;2023-07-20T13:05:17;24.50;95.60
44069;DHT22;29738;51.234;5.484;2023-07-20T13:07:42;24.10;97.00
44069;DHT22;29738;51.234;5.484;2023-07-20T13:10:08;24.00;96.80
44069;DHT22;29738;51.234;5.484;2023-07-20T13:15:24;24.60;95.40
44069;DHT22;29738;51.234;5.484;2023-07-20T13:17:58;24.60;93.50
44069;DHT22;29738;51.234;5.484;2023-07-20T13:20:25;24.70;93.50
44069;DHT22;29738;51.234;5.484;2023-07-20T13:22:52;25.00;94.10
44069;DHT22;29738;51.234;5.484;2023-07-20T13:25:18;25.00;94.50
44069;DHT22;29738;51.234;5.484;2023-07-20T13:27:46;24.90;94.60
44069;DHT22;29738;51.234;5.484;2023-07-20T13:30:12;25.10;95.40
44069;DHT22;29738;51.234;5.484;2023-07-20T13:32:45;25.20;94.60
44069;DHT22;29738;51.234;5.484;2023-07-20T13:35:11;25.20;95.10
44069;DHT22;29738;51.234;5.484;2023-07-20T13:37:37;25.20;95.30
44069;DHT22;29738;51.234;5.484;2023-07-20T13:40:03;25.50;93.90
44069;DHT22;29738;51.234;5.484;2023-07-20T13:42:30;25.90;93.10
44069;DHT22;29738;51.234;5.484;2023-07-20T13:44:56;25.80;93.80
44069;DHT22;29738;51.234;5.484;2023-07-20T13:47:22;25.80;94.30
44069;DHT22;29738;51.234;5.484;2023-07-20T13:49:47;25.30;93.60
44069;DHT22;29738;51.234;5.484;2023-07-20T13:52:13;25.30;93.90
44069;DHT22;29738;51.234;5.484;2023-07-20T13:54:39;25.00;95.70
44069;DHT22;29738;51.234;5.484;2023-07-20T13:57:05;25.00;94.10
44069;DHT22;29738;51.234;5.484;2023-07-20T13:59:30;24.60;94.40
44069;DHT22;29738;51.234;5.484;2023-07-20T14:01:56;24.60;94.30
44069;DHT22;29738;51.234;5.484;2023-07-20T14:04:22;24.20;94.20
44069;DHT22;29738;51.234;5.484;2023-07-20T14:06:47;24.30;95.80
44069;DHT22;29738;51.234;5.484;2023-07-20T14:09:13;24.30;97.40
44069;DHT22;29738;51.234;5.484;2023-07-20T14:11:39;24.60;94.30
44069;DHT22;29738;51.234;5.484;2023-07-20T14:14:04;24.50;95.10
44069;DHT22;29738;51.234;5.484;2023-07-20T14:16:30;24.60;95.50
44069;DHT22;29738;51.234;5.484;2023-07-20T14:18:57;24.90;95.10
44069;DHT22;29738;51.234;5.484;2023-07-20T14:21:23;24.90;95.60
44069;DHT22;29738;51.234;5.484;2023-07-20T14:23:50;25.30;94.20
44069;DHT22;29738;51.234;5.484;2023-07-20T14:26:16;25.80;93.80
44069;DHT22;29738;51.234;5.484;2023-07-20T14:28:42;25.80;94.10
44069;DHT22;29738;51.234;5.484;2023-07-20T14:31:08;26.00;92.90
44069;DHT22;29738;51.234;5.484;2023-07-20T14:33:34;26.20;92.70
44069;DHT22;29738;51.234;5.484;2023-07-20T14:36:00;26.00;93.10
44069;DHT22;29738;51.234;5.484;2023-07-20T14:38:30;26.10;92.90
44069;DHT22;29738;51.234;5.484;2023-07-20T14:40:56;25.70;92.80
44069;DHT22;29738;51.234;5.484;2023-07-20T14:43:21;25.40;93.40
44069;DHT22;29738;51.234;5.484;2023-07-20T14:45:47;25.40;94.10
44069;DHT22;29738;51.234;5.484;2023-07-20T14:48:13;25.40;94.50
44069;DHT22;29738;51.234;5.484;2023-07-20T14:50:39;25.30;94.40
44069;DHT22;29738;51.234;5.484;2023-07-20T14:53:05;25.40;95.20
44069;DHT22;29738;51.234;5.484;2023-07-20T14:55:31;25.70;95.40
44069;DHT22;29738;51.234;5.484;2023-07-20T14:57:57;25.30;93.30
44069;DHT22;29738;51.234;5.484;2023-07-20T15:00:22;25.00;94.10
44069;DHT22;29738;51.234;5.484;2023-07-20T15:02:49;24.60;94.90
44069;DHT22;29738;51.234;5.484;2023-07-20T15:05:24;24.70;94.40
44069;DHT22;29738;51.234;5.484;2023-07-20T15:07:52;24.70;95.20
44069;DHT22;29738;51.234;5.484;2023-07-20T15:10:17;24.50;94.70
44069;DHT22;29738;51.234;5.484;2023-07-20T15:12:43;24.80;95.00
44069;DHT22;29738;51.234;5.484;2023-07-20T15:15:10;24.60;95.80
44069;DHT22;29738;51.234;5.484;2023-07-20T15:17:36;24.00;97.00
44069;DHT22;29738;51.234;5.484;2023-07-20T15:20:05;23.70;97.40
44069;DHT22;29738;51.234;5.484;2023-07-20T15:22:35;24.00;98.50
44069;DHT22;29738;51.234;5.484;2023-07-20T15:25:05;23.60;97.40
44069;DHT22;29738;51.234;5.484;2023-07-20T15:27:32;23.20;98.30
44069;DHT22;29738;51.234;5.484;2023-07-20T15:29:57;23.20;99.50
44069;DHT22;29738;51.234;5.484;2023-07-20T15:32:23;23.10;99.00
44069;DHT22;29738;51.234;5.484;2023-07-20T15:34:50;22.90;99.40
44069;DHT22;29738;51.234;5.484;2023-07-20T15:37:18;23.10;99.80
44069;DHT22;29738;51.234;5.484;2023-07-20T15:39:43;22.90;99.80
44069;DHT22;29738;51.234;5.484;2023-07-20T15:42:09;22.60;99.90
44069;DHT22;29738;51.234;5.484;2023-07-20T15:44:40;22.10;99.90
44069;DHT22;29738;51.234;5.484;2023-07-20T15:47:22;22.30;99.90
44069;DHT22;29738;51.234;5.484;2023-07-20T15:49:54;22.50;99.90
44069;DHT22;29738;51.234;5.484;2023-07-20T15:52:20;22.60;99.90
44069;DHT22;29738;51.234;5.484;2023-07-20T15:54:49;22.90;99.90
44069;DHT22;29738;51.234;5.484;2023-07-20T15:57:16;23.00;99.90
44069;DHT22;29738;51.234;5.484;2023-07-20T15:59:42;22.60;99.90
44069;DHT22;29738;51.234;5.484;2023-07-20T16:02:08;22.50;99.90
44069;DHT22;29738;51.234;5.484;2023-07-20T16:04:33;22.50;99.90
44069;DHT22;29738;51.234;5.484;2023-07-20T16:06:59;22.20;99.90
44069;DHT22;29738;51.234;5.484;2023-07-20T16:09:25;22.30;99.90
44069;DHT22;29738;51.234;5.484;2023-07-20T16:11:51;22.10;99.90
44069;DHT22;29738;51.234;5.484;2023-07-20T16:14:16;22.10;99.90
44069;DHT22;29738;51.234;5.484;2023-07-20T16:16:42;22.30;99.90
44069;DHT22;29738;51.234;5.484;2023-07-20T16:19:07;22.60;99.90
44069;DHT22;29738;51.234;5.484;2023-07-20T16:21:33;22.80;99.90
44069;DHT22;29738;51.234;5.484;2023-07-20T16:23:59;22.90;99.90
44069;DHT22;29738;51.234;5.484;2023-07-20T16:26:25;23.00;99.90
44069;DHT22;29738;51.234;5.484;2023-07-20T16:28:50;22.90;99.90
44069;DHT22;29738;51.234;5.484;2023-07-20T16:31:16;22.70;99.90
44069;DHT22;29738;51.234;5.484;2023-07-20T16:33:42;22.80;99.90
44069;DHT22;29738;51.234;5.484;2023-07-20T16:36:08;22.50;99.90
44069;DHT22;29738;51.234;5.484;2023-07-20T16:38:35;22.20;99.90
44069;DHT22;29738;51.234;5.484;2023-07-20T16:41:00;22.40;99.90
44069;DHT22;29738;51.234;5.484;2023-07-20T16:43:26;22.20;99.90
44069;DHT22;29738;51.234;5.484;2023-07-20T16:45:57;21.80;99.90
44069;DHT22;29738;51.234;5.484;2023-07-20T16:48:23;21.90;99.90
44069;DHT22;29738;51.234;5.484;2023-07-20T16:50:49;22.00;99.90
44069;DHT22;29738;51.234;5.484;2023-07-20T16:53:14;22.10;99.90
44069;DHT22;29738;51.234;5.484;2023-07-20T16:55:40;22.20;99.90
44069;DHT22;29738;51.234;5.484;2023-07-20T16:58:10;22.10;99.90
44069;DHT22;29738;51.234;5.484;2023-07-20T17:00:35;22.00;99.90
44069;DHT22;29738;51.234;5.484;2023-07-20T17:03:02;22.10;99.90
44069;DHT22;29738;51.234;5.484;2023-07-20T17:05:31;22.20;99.90
44069;DHT22;29738;51.234;5.484;2023-07-20T17:07:57;22.20;99.90
44069;DHT22;29738;51.234;5.484;2023-07-20T17:10:24;22.30;99.90
44069;DHT22;29738;51.234;5.484;2023-07-20T17:12:49;22.10;99.90
44069;DHT22;29738;51.234;5.484;2023-07-20T17:15:15;22.10;99.90
44069;DHT22;29738;51.234;5.484;2023-07-20T17:17:42;22.10;99.90
44069;DHT22;29738;51.234;5.484;2023-07-20T17:20:08;22.00;99.90
44069;DHT22;29738;51.234;5.484;2023-07-20T17:22:36;22.00;99.90
44069;DHT22;29738;51.234;5.484;2023-07-20T17:25:02;22.00;99.90
44069;DHT22;29738;51.234;5.484;2023-07-20T17:27:30;21.90;99.90
44069;DHT22;29738;51.234;5.484;2023-07-20T17:29:56;21.80;99.90
44069;DHT22;29738;51.234;5.484;2023-07-20T17:32:24;21.50;99.90
44069;DHT22;29738;51.234;5.484;2023-07-20T17:34:51;21.70;99.90
44069;DHT22;29738;51.234;5.484;2023-07-20T17:37:16;21.80;99.90
44069;DHT22;29738;51.234;5.484;2023-07-20T17:39:43;21.90;99.90
44069;DHT22;29738;51.234;5.484;2023-07-20T17:42:09;21.80;99.90
44069;DHT22;29738;51.234;5.484;2023-07-20T17:44:35;21.70;99.90
44069;DHT22;29738;51.234;5.484;2023-07-20T17:47:01;21.50;99.90
44069;DHT22;29738;51.234;5.484;2023-07-20T17:49:27;21.80;99.90
44069;DHT22;29738;51.234;5.484;2023-07-20T17:51:52;21.70;99.90
44069;DHT22;29738;51.234;5.484;2023-07-20T17:54:18;21.80;99.90
44069;DHT22;29738;51.234;5.484;2023-07-20T17:56:44;22.10;99.90
44069;DHT22;29738;51.234;5.484;2023-07-20T17:59:09;22.00;99.90
44069;DHT22;29738;51.234;5.484;2023-07-20T18:01:35;21.40;99.90
44069;DHT22;29738;51.234;5.484;2023-07-20T18:04:01;21.30;99.90
44069;DHT22;29738;51.234;5.484;2023-07-20T18:06:26;21.10;99.90
44069;DHT22;29738;51.234;5.484;2023-07-20T18:08:52;21.00;99.90
44069;DHT22;29738;51.234;5.484;2023-07-20T18:11:18;20.80;99.90
44069;DHT22;29738;51.234;5.484;2023-07-20T18:13:44;20.90;99.90
44069;DHT22;29738;51.234;5.484;2023-07-20T18:16:10;20.70;99.90
44069;DHT22;29738;51.234;5.484;2023-07-20T18:18:36;20.50;99.90
44069;DHT22;29738;51.234;5.484;2023-07-20T18:21:01;20.40;99.90
44069;DHT22;29738;51.234;5.484;2023-07-20T18:23:27;20.30;99.90
44069;DHT22;29738;51.234;5.484;2023-07-20T18:25:53;20.00;99.90
44069;DHT22;29738;51.234;5.484;2023-07-20T18:28:19;19.60;99.90
44069;DHT22;29738;51.234;5.484;2023-07-20T18:30:44;19.60;99.90
44069;DHT22;29738;51.234;5.484;2023-07-20T18:33:11;19.40;99.90
44069;DHT22;29738;51.234;5.484;2023-07-20T18:35:38;19.50;99.90
44069;DHT22;29738;51.234;5.484;2023-07-20T18:43:15;18.90;99.90
44069;DHT22;29738;51.234;5.484;2023-07-20T18:45:42;18.50;99.90
44069;DHT22;29738;51.234;5.484;2023-07-20T18:48:08;18.30;99.90
44069;DHT22;29738;51.234;5.484;2023-07-20T18:50:35;18.20;99.90
44069;DHT22;29738;51.234;5.484;2023-07-20T18:53:01;18.10;99.90
44069;DHT22;29738;51.234;5.484;2023-07-20T18:55:32;18.10;99.90
44069;DHT22;29738;51.234;5.484;2023-07-20T18:57:57;18.10;99.90
44069;DHT22;29738;51.234;5.484;2023-07-20T19:00:25;18.10;99.90
44069;DHT22;29738;51.234;5.484;2023-07-20T19:02:51;18.40;99.90
44069;DHT22;29738;51.234;5.484;2023-07-20T19:05:16;18.60;99.90
44069;DHT22;29738;51.234;5.484;2023-07-20T19:07:42;18.80;99.90
44069;DHT22;29738;51.234;5.484;2023-07-20T19:10:09;19.00;99.90
44069;DHT22;29738;51.234;5.484;2023-07-20T19:12:37;19.00;99.90
44069;DHT22;29738;51.234;5.484;2023-07-20T19:15:02;19.00;99.90
44069;DHT22;29738;51.234;5.484;2023-07-20T19:17:28;18.90;99.90
44069;DHT22;29738;51.234;5.484;2023-07-20T19:19:55;18.70;99.90
44069;DHT22;29738;51.234;5.484;2023-07-20T19:22:20;18.50;99.90
44069;DHT22;29738;51.234;5.484;2023-07-20T19:24:46;18.60;99.90
44069;DHT22;29738;51.234;5.484;2023-07-20T19:27:12;18.70;99.90
44069;DHT22;29738;51.234;5.484;2023-07-20T19:29:38;18.60;99.90
44069;DHT22;29738;51.234;5.484;2023-07-20T19:32:04;18.70;99.90
44069;DHT22;29738;51.234;5.484;2023-07-20T19:34:29;18.70;99.90
44069;DHT22;29738;51.234;5.484;2023-07-20T19:36:55;18.80;99.90
44069;DHT22;29738;51.234;5.484;2023-07-20T19:39:21;19.00;99.90
44069;DHT22;29738;51.234;5.484;2023-07-20T19:41:46;19.10;99.90
44069;DHT22;29738;51.234;5.484;2023-07-20T19:44:12;18.90;99.90
44069;DHT22;29738;51.234;5.484;2023-07-20T19:46:38;18.80;99.90
44069;DHT22;29738;51.234;5.484;2023-07-20T19:49:04;18.70;99.90
44069;DHT22;29738;51.234;5.484;2023-07-20T19:51:30;18.70;99.90
44069;DHT22;29738;51.234;5.484;2023-07-20T19:53:55;19.00;99.90
44069;DHT22;29738;51.234;5.484;2023-07-20T19:56:23;19.20;99.90
44069;DHT22;29738;51.234;5.484;2023-07-20T19:58:49;19.30;99.90
44069;DHT22;29738;51.234;5.484;2023-07-20T20:01:14;19.30;99.90
44069;DHT22;29738;51.234;5.484;2023-07-20T20:03:40;19.20;99.90
44069;DHT22;29738;51.234;5.484;2023-07-20T20:06:07;19.20;99.90
44069;DHT22;29738;51.234;5.484;2023-07-20T20:08:35;19.10;99.90
44069;DHT22;29738;51.234;5.484;2023-07-20T20:11:00;19.20;99.90
44069;DHT22;29738;51.234;5.484;2023-07-20T20:13:26;19.10;99.90
44069;DHT22;29738;51.234;5.484;2023-07-20T20:15:53;19.10;99.90
44069;DHT22;29738;51.234;5.484;2023-07-20T20:18:19;19.10;99.90
44069;DHT22;29738;51.234;5.484;2023-07-20T20:20:48;19.00;99.90
44069;DHT22;29738;51.234;5.484;2023-07-20T20:23:17;19.10;99.90
44069;DHT22;29738;51.234;5.484;2023-07-20T20:25:43;19.10;99.90
44069;DHT22;29738;51.234;5.484;2023-07-20T20:28:09;19.10;99.90
44069;DHT22;29738;51.234;5.484;2023-07-20T20:30:35;19.20;99.90
44069;DHT22;29738;51.234;5.484;2023-07-20T20:33:01;19.20;99.90
44069;DHT22;29738;51.234;5.484;2023-07-20T20:35:26;18.80;99.90
44069;DHT22;29738;51.234;5.484;2023-07-20T20:37:52;18.40;99.90
44069;DHT22;29738;51.234;5.484;2023-07-20T20:40:19;18.10;99.90
44069;DHT22;29738;51.234;5.484;2023-07-20T20:42:45;18.00;99.90
44069;DHT22;29738;51.234;5.484;2023-07-20T20:45:11;18.20;99.90
44069;DHT22;29738;51.234;5.484;2023-07-20T20:47:37;18.50;99.90
44069;DHT22;29738;51.234;5.484;2023-07-20T20:50:06;18.50;99.90
44069;DHT22;29738;51.234;5.484;2023-07-20T20:52:37;18.20;99.90
44069;DHT22;29738;51.234;5.484;2023-07-20T20:55:06;18.10;99.90
44069;DHT22;29738;51.234;5.484;2023-07-20T20:57:35;17.90;99.90
44069;DHT22;29738;51.234;5.484;2023-07-20T21:00:01;17.80;99.90
44069;DHT22;29738;51.234;5.484;2023-07-20T21:02:31;17.50;99.90
44069;DHT22;29738;51.234;5.484;2023-07-20T21:04:57;17.40;99.90
44069;DHT22;29738;51.234;5.484;2023-07-20T21:07:24;17.20;99.90
44069;DHT22;29738;51.234;5.484;2023-07-20T21:09:51;17.20;99.90
44069;DHT22;29738;51.234;5.484;2023-07-20T21:12:18;17.00;99.90
44069;DHT22;29738;51.234;5.484;2023-07-20T21:14:53;17.00;99.90
44069;DHT22;29738;51.234;5.484;2023-07-20T21:17:20;17.00;99.90
44069;DHT22;29738;51.234;5.484;2023-07-20T21:40:57;16.60;99.90
44069;DHT22;29738;51.234;5.484;2023-07-20T21:43:29;16.70;99.90
44069;DHT22;29738;51.234;5.484;2023-07-20T22:29:52;15.50;99.90
44069;DHT22;29738;51.234;5.484;2023-07-20T22:32:19;15.50;99.90
44069;DHT22;29738;51.234;5.484;2023-07-20T22:34:47;15.50;99.90
44069;DHT22;29738;51.234;5.484;2023-07-20T22:37:14;15.60;99.90
44069;DHT22;29738;51.234;5.484;2023-07-20T22:39:40;15.40;99.90
44069;DHT22;29738;51.234;5.484;2023-07-20T22:42:05;15.30;99.90
44069;DHT22;29738;51.234;5.484;2023-07-20T22:44:34;15.30;99.90
44069;DHT22;29738;51.234;5.484;2023-07-20T22:47:01;15.50;99.90
44069;DHT22;29738;51.234;5.484;2023-07-20T22:49:33;15.50;99.90
44069;DHT22;29738;51.234;5.484;2023-07-20T22:52:00;15.40;99.90
44069;DHT22;29738;51.234;5.484;2023-07-20T22:54:26;15.40;99.90
44069;DHT22;29738;51.234;5.484;2023-07-20T22:56:54;15.40;99.90
44069;DHT22;29738;51.234;5.484;2023-07-20T22:59:22;15.50;99.90
44069;DHT22;29738;51.234;5.484;2023-07-20T23:01:51;15.50;99.90
44069;DHT22;29738;51.234;5.484;2023-07-20T23:04:19;15.70;99.90
44069;DHT22;29738;51.234;5.484;2023-07-20T23:06:46;15.70;99.90
44069;DHT22;29738;51.234;5.484;2023-07-20T23:09:14;15.40;99.90
44069;DHT22;29738;51.234;5.484;2023-07-20T23:11:40;15.50;99.90
44069;DHT22;29738;51.234;5.484;2023-07-20T23:14:07;15.50;99.90
44069;DHT22;29738;51.234;5.484;2023-07-20T23:16:35;15.70;99.90
44069;DHT22;29738;51.234;5.484;2023-07-20T23:19:00;15.70;99.90
44069;DHT22;29738;51.234;5.484;2023-07-20T23:21:27;15.60;99.90
44069;DHT22;29738;51.234;5.484;2023-07-20T23:23:54;15.70;99.90
44069;DHT22;29738;51.234;5.484;2023-07-20T23:26:19;15.50;99.90
44069;DHT22;29738;51.234;5.484;2023-07-20T23:28:45;15.50;99.90
44069;DHT22;29738;51.234;5.484;2023-07-20T23:31:15;15.40;99.90
44069;DHT22;29738;51.234;5.484;2023-07-20T23:33:44;15.20;99.90
44069;DHT22;29738;51.234;5.484;2023-07-20T23:38:46;15.30;99.90
44069;DHT22;29738;51.234;5.484;2023-07-20T23:41:13;15.10;99.90
44069;DHT22;29738;51.234;5.484;2023-07-20T23:43:40;15.20;99.90
44069;DHT22;29738;51.234;5.484;2023-07-20T23:46:10;15.30;99.90
